createdAt,value
2018-05-02T00:02:08.703Z,58.00
2018-05-02T00:04:37.884Z,57.99
2018-05-02T00:07:06.221Z,57.98
2018-05-02T00:09:34.576Z,57.82
2018-05-02T00:12:02.990Z,58.09
2018-05-02T00:14:31.326Z,57.91
2018-05-02T00:17:00.414Z,58.10
2018-05-02T00:19:28.784Z,57.89
2018-05-02T00:21:58.722Z,58.09
2018-05-02T00:24:27.064Z,58.23
2018-05-02T00:26:56.384Z,58.10
2018-05-02T00:29:25.608Z,58.16
2018-05-02T00:31:54.007Z,58.22
2018-05-02T00:34:22.352Z,58.22
2018-05-02T00:36:51.465Z,58.31
2018-05-02T00:39:20.438Z,58.06
2018-05-02T00:41:49.532Z,58.74
2018-05-02T00:44:18.741Z,58.66
2018-05-02T00:46:47.111Z,58.77
2018-05-02T00:49:19.033Z,58.80
2018-05-02T00:51:48.331Z,59.30
2018-05-02T00:54:16.728Z,59.11
2018-05-02T00:56:45.264Z,58.60
2018-05-02T00:59:13.645Z,58.55
2018-05-02T01:01:41.990Z,58.12
2018-05-02T01:04:12.041Z,58.55
2018-05-02T01:06:42.052Z,58.44
2018-05-02T01:09:10.824Z,59.38
2018-05-02T01:11:40.708Z,59.17
2018-05-02T01:14:09.735Z,59.43
2018-05-02T01:16:38.902Z,58.97
2018-05-02T01:19:07.998Z,58.69
2018-05-02T01:21:37.511Z,58.55
2018-05-02T01:24:07.503Z,58.77
2018-05-02T01:26:36.717Z,58.53
2018-05-02T01:29:05.864Z,58.60
2018-05-02T01:31:34.197Z,58.25
2018-05-02T01:34:04.895Z,58.36
2018-05-02T01:36:33.876Z,58.56
2018-05-02T01:39:02.425Z,58.50
2018-05-02T01:41:31.529Z,58.44
2018-05-02T01:43:59.857Z,58.26
2018-05-02T01:46:29.176Z,58.58
2018-05-02T01:52:08.328Z,59.55
2018-05-02T01:54:37.289Z,59.91
2018-05-02T01:57:06.423Z,60.17
2018-05-02T01:59:35.517Z,60.72
2018-05-02T02:02:06.000Z,60.83
2018-05-02T02:04:35.978Z,60.40
2018-05-02T02:07:05.100Z,60.10
2018-05-02T02:09:33.472Z,60.48
2018-05-02T02:12:02.869Z,60.71
2018-05-02T02:14:32.022Z,60.61
2018-05-02T02:17:01.004Z,60.17
2018-05-02T02:19:29.361Z,60.53
2018-05-02T02:21:58.650Z,60.54
2018-05-02T02:24:29.772Z,60.41
2018-05-02T02:27:01.503Z,60.20
2018-05-02T02:29:29.964Z,61.23
2018-05-02T02:31:58.353Z,61.00
2018-05-02T02:34:27.646Z,60.73
2018-05-02T02:36:56.017Z,61.30
2018-05-02T02:39:25.120Z,60.94
2018-05-02T02:41:53.454Z,60.94
2018-05-02T02:44:21.790Z,60.80
2018-05-02T02:46:50.661Z,60.94
2018-05-02T02:49:19.030Z,60.66
2018-05-02T02:51:47.354Z,61.11
2018-05-02T02:54:18.116Z,61.04
2018-05-02T02:56:46.448Z,61.50
2018-05-02T02:59:16.379Z,61.54
2018-05-02T03:01:46.170Z,61.71
2018-05-02T03:04:16.123Z,62.08
2018-05-02T03:06:45.313Z,62.04
2018-05-02T03:09:14.464Z,61.81
2018-05-02T03:11:45.337Z,61.98
2018-05-02T03:14:14.459Z,62.01
2018-05-02T03:16:43.160Z,61.63
2018-05-02T03:19:12.262Z,61.23
2018-05-02T03:21:42.147Z,60.76
2018-05-02T03:24:11.419Z,60.57
2018-05-02T03:26:40.554Z,60.48
2018-05-02T03:29:10.389Z,61.08
2018-05-02T03:31:38.767Z,60.90
2018-05-02T03:34:08.108Z,61.09
2018-05-02T03:36:37.921Z,61.36
2018-05-02T03:39:07.526Z,61.32
2018-05-02T03:41:36.675Z,61.24
2018-05-02T03:44:05.964Z,61.32
2018-05-02T03:46:34.958Z,61.53
2018-05-02T03:49:03.280Z,61.70
2018-05-02T03:51:32.677Z,62.13
2018-05-02T03:54:01.769Z,61.82
2018-05-02T03:56:30.824Z,61.54
2018-05-02T03:58:59.212Z,61.40
2018-05-02T04:01:45.480Z,61.49
2018-05-02T04:04:32.563Z,61.42
2018-05-02T04:07:15.736Z,61.75
2018-05-02T04:09:45.296Z,61.56
2018-05-02T04:12:17.124Z,61.32
2018-05-02T04:14:46.057Z,62.31
2018-05-02T04:17:15.177Z,61.98
2018-05-02T04:19:44.677Z,62.25
2018-05-02T04:22:15.762Z,62.15
2018-05-02T04:24:45.825Z,62.28
2018-05-02T04:27:14.989Z,62.28
2018-05-02T04:29:43.361Z,62.18
2018-05-02T04:32:11.723Z,61.61
2018-05-02T04:34:40.245Z,61.83
2018-05-02T04:37:08.610Z,61.73
2018-05-02T04:39:38.765Z,61.75
2018-05-02T04:42:07.165Z,61.38
2018-05-02T04:44:36.394Z,61.52
2018-05-02T04:47:06.225Z,61.00
2018-05-02T04:49:35.495Z,61.19
2018-05-02T04:52:04.988Z,61.13
2018-05-02T04:54:34.028Z,61.10
2018-05-02T04:57:06.750Z,61.39
2018-05-02T04:59:37.327Z,61.54
2018-05-02T05:02:06.593Z,61.07
2018-05-02T05:04:36.944Z,60.54
2018-05-02T05:07:06.938Z,59.78
2018-05-02T05:09:37.649Z,59.73
2018-05-02T05:12:07.535Z,59.03
2018-05-02T05:14:38.157Z,59.28
2018-05-02T05:17:10.130Z,59.64
2018-05-02T05:19:40.628Z,59.29
2018-05-02T05:22:11.939Z,59.33
2018-05-02T05:24:50.136Z,58.92
2018-05-02T05:27:22.710Z,58.49
2018-05-02T05:29:52.524Z,58.88
2018-05-02T05:32:22.875Z,58.25
2018-05-02T05:34:51.631Z,58.67
2018-05-02T05:37:22.098Z,58.49
2018-05-02T05:39:52.918Z,58.93
2018-05-02T05:42:39.208Z,58.30
2018-05-02T05:45:09.243Z,58.40
2018-05-02T05:47:47.268Z,58.61
2018-05-02T05:50:16.019Z,57.99
2018-05-02T05:52:47.511Z,57.75
2018-05-02T05:55:17.324Z,57.97
2018-05-02T05:57:46.456Z,58.45
2018-05-02T06:00:16.810Z,58.11
2018-05-02T06:02:46.659Z,58.08
2018-05-02T06:05:18.820Z,58.34
2018-05-02T06:07:52.962Z,58.11
2018-05-02T06:10:24.265Z,57.45
2018-05-02T06:12:54.529Z,57.47
2018-05-02T06:15:25.757Z,57.47
2018-05-02T06:17:57.423Z,57.20
2018-05-02T06:20:26.844Z,56.76
2018-05-02T06:22:58.584Z,56.91
2018-05-02T06:25:28.257Z,56.16
2018-05-02T06:28:02.041Z,56.56
2018-05-02T06:30:31.210Z,56.64
2018-05-02T06:33:02.055Z,56.45
2018-05-02T06:35:32.893Z,56.62
2018-05-02T06:38:02.695Z,56.26
2018-05-02T06:40:32.486Z,56.28
2018-05-02T06:43:02.890Z,56.41
2018-05-02T06:45:31.910Z,56.08
2018-05-02T06:48:01.663Z,56.14
2018-05-02T06:50:32.758Z,55.55
2018-05-02T06:53:03.220Z,55.33
2018-05-02T06:55:34.611Z,55.47
2018-05-02T06:58:07.060Z,55.29
2018-05-02T07:00:37.610Z,54.55
2018-05-02T07:03:07.451Z,54.79
2018-05-02T07:05:36.551Z,54.83
2018-05-02T07:08:07.284Z,53.71
2018-05-02T07:10:37.998Z,54.83
2018-05-02T07:13:09.769Z,53.70
2018-05-02T07:15:39.451Z,54.28
2018-05-02T07:18:07.933Z,53.60
2018-05-02T07:20:38.243Z,53.89
2018-05-02T07:23:09.129Z,53.49
2018-05-02T07:25:39.159Z,53.10
2018-05-02T07:28:09.270Z,53.64
2018-05-02T07:30:39.337Z,53.44
2018-05-02T07:33:13.013Z,52.34
2018-05-02T07:35:43.980Z,52.55
2018-05-02T07:38:15.033Z,52.23
2018-05-02T07:40:45.425Z,51.67
2018-05-02T07:43:14.717Z,51.97
2018-05-02T07:45:44.214Z,51.90
2018-05-02T07:48:18.492Z,52.18
2018-05-02T07:50:49.542Z,52.36
2018-05-02T07:53:19.263Z,52.04
2018-05-02T07:55:48.794Z,51.66
2018-05-02T07:58:20.690Z,51.01
2018-05-02T08:00:51.670Z,51.65
2018-05-02T08:03:23.260Z,52.09
2018-05-02T08:05:52.416Z,51.33
2018-05-02T08:08:21.908Z,51.30
2018-05-02T08:10:51.407Z,51.64
2018-05-02T08:13:21.972Z,51.92
2018-05-02T08:15:53.422Z,52.00
2018-05-02T08:18:23.966Z,52.08
2018-05-02T08:20:53.323Z,51.61
2018-05-02T08:23:24.692Z,50.61
2018-05-02T08:25:53.120Z,50.39
2018-05-02T08:28:26.475Z,50.32
2018-05-02T08:30:55.662Z,50.11
2018-05-02T08:33:25.046Z,48.54
2018-05-02T08:35:53.755Z,48.66
2018-05-02T08:38:24.629Z,49.67
2018-05-02T08:40:55.615Z,48.13
2018-05-02T08:43:24.698Z,47.71
2018-05-02T08:45:55.795Z,47.71
2018-05-02T08:48:24.645Z,46.10
2018-05-02T08:50:53.461Z,46.57
2018-05-02T08:53:24.232Z,46.03
2018-05-02T08:55:53.282Z,45.96
2018-05-02T08:58:25.826Z,46.96
2018-05-02T09:00:56.925Z,45.43
2018-05-02T09:03:28.672Z,45.61
2018-05-02T09:05:57.836Z,44.71
2018-05-02T09:08:27.280Z,45.01
2018-05-02T09:10:58.091Z,44.52
2018-05-02T09:13:28.166Z,44.56
2018-05-02T09:15:57.362Z,44.68
2018-05-02T09:18:28.105Z,45.07
2018-05-02T09:20:58.866Z,45.45
2018-05-02T09:23:29.619Z,44.99
2018-05-02T09:25:59.313Z,45.28
2018-05-02T09:28:29.078Z,45.67
2018-05-02T09:30:58.660Z,45.02
2018-05-02T09:33:28.880Z,44.25
2018-05-02T09:35:58.796Z,44.58
2018-05-02T09:38:29.616Z,43.85
2018-05-02T09:40:58.666Z,43.76
2018-05-02T09:43:28.642Z,43.24
2018-05-02T09:45:57.175Z,43.22
2018-05-02T09:48:27.934Z,43.61
2018-05-02T09:50:58.146Z,44.39
2018-05-02T09:53:27.684Z,43.69
2018-05-02T09:56:00.990Z,43.67
2018-05-02T09:58:30.234Z,43.33
2018-05-02T10:00:59.476Z,41.46
2018-05-02T10:03:32.173Z,42.33
2018-05-02T10:06:01.597Z,42.73
2018-05-02T10:08:32.025Z,42.26
2018-05-02T10:11:03.655Z,40.69
2018-05-02T10:13:33.686Z,42.08
2018-05-02T10:16:02.463Z,38.80
2018-05-02T10:18:33.602Z,37.82
2018-05-02T10:21:03.880Z,38.20
2018-05-02T10:23:33.123Z,38.74
2018-05-02T10:26:02.684Z,39.40
2018-05-02T10:28:32.393Z,38.74
2018-05-02T10:31:04.974Z,37.36
2018-05-02T10:33:36.440Z,37.22
2018-05-02T10:36:05.187Z,38.83
2018-05-02T10:38:36.012Z,39.28
2018-05-02T10:41:06.615Z,37.88
2018-05-02T10:43:36.053Z,39.68
2018-05-02T10:46:05.225Z,37.45
2018-05-02T10:48:36.695Z,39.34
2018-05-02T10:51:07.590Z,38.51
2018-05-02T10:53:38.062Z,36.89
2018-05-02T10:56:08.474Z,37.20
2018-05-02T10:58:38.449Z,37.13
2018-05-02T11:01:11.456Z,36.71
2018-05-02T11:03:43.170Z,37.24
2018-05-02T11:06:14.926Z,36.72
2018-05-02T11:08:45.232Z,38.87
2018-05-02T11:11:16.871Z,37.87
2018-05-02T11:13:47.806Z,37.28
2018-05-02T11:16:18.940Z,38.32
2018-05-02T11:18:48.033Z,36.43
2018-05-02T11:21:17.473Z,38.33
2018-05-02T11:23:49.355Z,37.91
2018-05-02T11:26:19.957Z,37.49
2018-05-02T11:28:52.069Z,37.71
2018-05-02T11:31:21.706Z,36.27
2018-05-02T11:33:51.544Z,38.07
2018-05-02T11:36:19.927Z,36.67
2018-05-02T11:38:51.153Z,38.21
2018-05-02T11:41:22.422Z,35.72
2018-05-02T11:43:53.414Z,37.06
2018-05-02T11:46:22.894Z,36.78
2018-05-02T11:48:52.689Z,35.06
2018-05-02T11:51:21.105Z,36.72
2018-05-02T11:53:49.537Z,35.77
2018-05-02T11:56:19.300Z,35.22
2018-05-02T11:58:49.865Z,36.78
2018-05-02T12:01:21.750Z,35.76
2018-05-02T12:03:52.722Z,36.08
2018-05-02T12:06:23.181Z,35.98
2018-05-02T12:08:54.681Z,35.12
2018-05-02T12:11:25.039Z,37.16
2018-05-02T12:13:56.346Z,35.47
2018-05-02T12:16:27.445Z,34.33
2018-05-02T12:18:56.581Z,33.96
2018-05-02T12:21:28.245Z,33.54
2018-05-02T12:23:59.283Z,35.79
2018-05-02T12:26:29.235Z,36.85
2018-05-02T12:29:00.035Z,34.67
2018-05-02T12:31:32.173Z,34.12
2018-05-02T12:34:02.225Z,34.28
2018-05-02T12:36:32.315Z,34.43
2018-05-02T12:39:04.384Z,34.28
2018-05-02T12:41:35.215Z,34.58
2018-05-02T12:44:04.678Z,35.40
2018-05-02T12:46:34.584Z,34.47
2018-05-02T12:49:05.500Z,35.04
2018-05-02T12:51:35.519Z,34.88
2018-05-02T12:54:06.404Z,34.63
2018-05-02T12:56:37.257Z,35.04
2018-05-02T12:59:08.123Z,35.13
2018-05-02T13:01:39.089Z,34.68
2018-05-02T13:04:08.349Z,35.80
2018-05-02T13:06:40.314Z,34.81
2018-05-02T13:09:10.462Z,36.16
2018-05-02T13:11:39.873Z,38.19
2018-05-02T13:14:09.470Z,38.22
2018-05-02T13:16:39.485Z,39.21
2018-05-02T13:19:08.874Z,38.38
2018-05-02T13:21:41.206Z,38.58
2018-05-02T13:24:10.900Z,37.54
2018-05-02T13:26:41.564Z,38.67
2018-05-02T13:29:12.062Z,38.09
2018-05-02T13:31:43.268Z,38.77
2018-05-02T13:34:12.747Z,36.94
2018-05-02T13:36:43.074Z,36.73
2018-05-02T13:39:13.011Z,35.51
2018-05-02T13:41:42.248Z,35.93
2018-05-02T13:44:12.304Z,38.56
2018-05-02T13:46:43.110Z,39.38
2018-05-02T13:49:12.840Z,38.50
2018-05-02T13:51:43.447Z,38.32
2018-05-02T13:54:15.441Z,39.32
2018-05-02T13:56:47.221Z,39.59
2018-05-02T13:59:19.546Z,38.62
2018-05-02T14:01:50.530Z,38.62
2018-05-02T14:04:22.364Z,38.80
2018-05-02T14:06:52.552Z,38.20
2018-05-02T14:09:23.677Z,39.66
2018-05-02T14:11:54.378Z,38.79
2018-05-02T14:14:25.893Z,38.31
2018-05-02T14:16:57.132Z,38.22
2018-05-02T14:19:25.645Z,39.55
2018-05-02T14:21:54.046Z,39.04
2018-05-02T14:24:23.223Z,39.08
2018-05-02T14:26:52.302Z,38.19
2018-05-02T14:29:20.666Z,38.50
2018-05-02T14:31:49.014Z,38.24
2018-05-02T14:34:18.901Z,38.02
2018-05-02T14:36:47.230Z,37.73
2018-05-02T14:39:15.599Z,38.76
2018-05-02T14:41:43.959Z,38.00
2018-05-02T14:44:13.302Z,38.47
2018-05-02T14:46:41.683Z,38.53
2018-05-02T14:49:10.061Z,38.63
2018-05-02T14:51:38.445Z,38.66
2018-05-02T14:54:06.858Z,38.08
2018-05-02T14:56:36.789Z,38.39
2018-05-02T14:59:06.939Z,37.10
2018-05-02T15:01:35.367Z,38.04
2018-05-02T15:04:04.556Z,37.29
2018-05-02T15:06:33.833Z,38.65
2018-05-02T15:09:02.281Z,37.96
2018-05-02T15:11:30.626Z,38.84
2018-05-02T15:13:59.364Z,38.42
2018-05-02T15:16:27.727Z,38.46
2018-05-02T15:18:56.149Z,38.80
2018-05-02T15:21:24.602Z,39.08
2018-05-02T15:23:53.013Z,38.86
2018-05-02T15:26:22.640Z,40.41
2018-05-02T15:28:52.140Z,39.46
2018-05-02T15:31:22.161Z,39.29
2018-05-02T15:33:51.349Z,40.68
2018-05-02T15:36:19.685Z,40.16
2018-05-02T15:38:48.062Z,41.96
2018-05-02T15:41:16.535Z,40.48
2018-05-02T15:43:45.914Z,41.56
2018-05-02T15:46:15.284Z,43.63
2018-05-02T15:48:47.840Z,42.34
2018-05-02T15:51:16.577Z,42.81
2018-05-02T15:53:48.053Z,42.28
2018-05-02T15:56:16.408Z,42.84
2018-05-02T15:58:45.629Z,42.73
2018-05-02T16:01:14.705Z,42.60
2018-05-02T16:03:43.839Z,42.79
2018-05-02T16:06:12.234Z,42.81
2018-05-02T16:08:40.597Z,42.94
2018-05-02T16:11:09.039Z,43.97
2018-05-02T16:13:38.208Z,42.66
2018-05-02T16:16:06.568Z,42.60
2018-05-02T16:18:34.931Z,43.27
2018-05-02T16:21:04.357Z,42.61
2018-05-02T16:23:37.111Z,43.46
2018-05-02T16:26:05.521Z,43.16
2018-05-02T16:28:35.668Z,44.39
2018-05-02T16:31:04.267Z,44.17
2018-05-02T16:33:37.345Z,43.73
2018-05-02T16:36:06.581Z,43.50
2018-05-02T16:38:35.733Z,43.68
2018-05-02T16:41:06.759Z,44.03
2018-05-02T16:43:35.157Z,44.10
2018-05-02T16:46:06.608Z,44.17
2018-05-02T16:48:35.023Z,44.07
2018-05-02T16:51:04.194Z,44.28
2018-05-02T16:53:33.995Z,44.13
2018-05-02T16:56:02.470Z,44.36
2018-05-02T16:58:30.865Z,44.67
2018-05-02T17:01:00.049Z,44.20
2018-05-02T17:03:32.684Z,44.94
2018-05-02T17:06:01.086Z,44.10
2018-05-02T17:08:29.739Z,44.11
2018-05-02T17:10:58.102Z,44.07
2018-05-02T17:13:26.536Z,44.45
2018-05-02T17:15:55.474Z,45.06
2018-05-02T17:18:23.992Z,44.52
2018-05-02T17:20:52.526Z,45.24
2018-05-02T17:23:25.002Z,45.34
2018-05-02T17:25:55.016Z,45.10
2018-05-02T17:28:24.217Z,45.84
2018-05-02T17:30:53.730Z,45.27
2018-05-02T17:33:25.407Z,46.09
2018-05-02T17:35:55.910Z,46.28
2018-05-02T17:38:26.150Z,46.02
2018-05-02T17:40:54.663Z,46.86
2018-05-02T17:43:24.589Z,47.17
2018-05-02T17:45:53.135Z,46.82
2018-05-02T17:48:21.578Z,47.06
2018-05-02T17:50:54.987Z,47.48
2018-05-02T17:53:23.858Z,47.16
2018-05-02T17:55:52.744Z,47.77
2018-05-02T17:58:22.034Z,48.13
2018-05-02T18:00:50.549Z,47.88
2018-05-02T18:03:19.233Z,48.04
2018-05-02T18:05:48.450Z,48.23
2018-05-02T18:08:17.197Z,48.62
2018-05-02T18:10:45.563Z,48.70
2018-05-02T18:13:14.066Z,49.03
2018-05-02T18:15:43.201Z,49.57
2018-05-02T18:18:11.583Z,49.52
2018-05-02T18:20:39.987Z,49.39
2018-05-02T18:23:08.378Z,49.63
2018-05-02T18:25:36.912Z,49.41
2018-05-02T18:28:07.097Z,49.96
2018-05-02T18:30:35.454Z,49.60
2018-05-02T18:33:04.587Z,49.83
2018-05-02T18:35:35.289Z,49.80
2018-05-02T18:38:04.381Z,49.71
2018-05-02T18:40:32.774Z,50.07
2018-05-02T18:43:01.920Z,49.85
2018-05-02T18:45:30.557Z,50.19
2018-05-02T18:47:58.997Z,50.39
2018-05-02T18:50:28.131Z,50.50
2018-05-02T18:52:56.480Z,51.25
2018-05-02T18:55:24.865Z,51.46
2018-05-02T18:57:53.227Z,51.56
2018-05-02T19:00:21.763Z,51.41
2018-05-02T19:02:50.965Z,51.11
2018-05-02T19:05:20.684Z,51.84
2018-05-02T19:07:49.162Z,51.95
2018-05-02T19:10:18.419Z,51.17
2018-05-02T19:12:47.616Z,51.18
2018-05-02T19:15:16.246Z,51.60
2018-05-02T19:17:50.210Z,51.99
2018-05-02T19:20:24.243Z,51.60
2018-05-02T19:22:52.682Z,51.71
2018-05-02T19:25:31.987Z,51.99
2018-05-02T19:28:00.707Z,52.50
2018-05-02T19:30:29.362Z,52.02
2018-05-02T19:33:14.908Z,52.42
2018-05-02T19:35:46.774Z,52.32
2018-05-02T19:38:26.211Z,52.67
2018-05-02T19:41:07.231Z,52.82
2018-05-02T19:43:41.320Z,52.28
2018-05-02T19:46:09.783Z,52.42
2018-05-02T19:48:39.316Z,52.65
2018-05-02T19:51:13.165Z,52.72
2018-05-02T19:53:43.231Z,52.88
2018-05-02T19:56:12.458Z,52.88
2018-05-02T19:58:40.895Z,53.68
2018-05-02T20:01:14.892Z,52.99
2018-05-02T20:03:43.394Z,52.93
2018-05-02T20:06:12.710Z,53.08
2018-05-02T20:08:48.509Z,53.19
2018-05-02T20:11:24.092Z,53.79
2018-05-02T20:13:58.846Z,53.46
2018-05-02T20:16:27.213Z,53.77
2018-05-02T20:18:56.414Z,53.39
2018-05-02T20:21:25.599Z,53.68
2018-05-02T20:23:53.988Z,54.06
2018-05-02T20:26:22.543Z,53.90
2018-05-02T20:28:51.090Z,53.96
2018-05-02T20:31:27.460Z,53.73
2018-05-02T20:33:55.972Z,53.99
2018-05-02T20:36:24.467Z,54.09
2018-05-02T20:38:52.945Z,54.48
2018-05-02T20:41:22.455Z,53.94
2018-05-02T20:43:50.826Z,54.12
2018-05-02T20:46:20.287Z,54.51
2018-05-02T20:48:48.843Z,54.47
2018-05-02T20:51:17.850Z,54.31
2018-05-02T20:53:46.491Z,54.42
2018-05-02T20:56:15.107Z,54.68
2018-05-02T20:58:44.231Z,54.31
2018-05-02T21:01:12.606Z,54.26
2018-05-02T21:03:41.015Z,54.35
2018-05-02T21:06:09.344Z,54.47
2018-05-02T21:08:38.229Z,54.43
2018-05-02T21:11:07.394Z,54.31
2018-05-02T21:13:35.735Z,54.70
2018-05-02T21:16:04.158Z,54.68
2018-05-02T21:18:33.270Z,55.02
2018-05-02T21:21:02.475Z,55.42
2018-05-02T21:23:31.597Z,55.23
2018-05-02T21:25:59.972Z,55.30
2018-05-02T21:28:28.382Z,55.57
2018-05-02T21:30:56.811Z,55.96
2018-05-02T21:33:25.109Z,56.36
2018-05-02T21:35:53.523Z,56.23
2018-05-02T21:38:21.882Z,56.49
2018-05-02T21:40:50.320Z,56.34
2018-05-02T21:43:19.726Z,56.25
2018-05-02T21:45:48.894Z,56.56
2018-05-02T21:48:17.277Z,56.68
2018-05-02T21:50:46.420Z,56.90
2018-05-02T21:53:14.819Z,56.82
2018-05-02T21:55:43.184Z,56.86
2018-05-02T21:58:11.541Z,56.92
2018-05-02T22:00:40.889Z,57.50
2018-05-02T22:03:09.817Z,57.80
2018-05-02T22:05:38.923Z,57.58
2018-05-02T22:08:08.067Z,57.72
2018-05-02T22:10:36.538Z,58.26
2018-05-02T22:13:04.987Z,58.29
2018-05-02T22:15:33.376Z,58.22
2018-05-02T22:18:01.757Z,58.03
2018-05-02T22:20:30.126Z,58.15
2018-05-02T22:22:59.220Z,58.38
2018-05-02T22:25:28.441Z,58.25
2018-05-02T22:27:56.761Z,58.71
2018-05-02T22:30:25.139Z,58.65
2018-05-02T22:32:53.491Z,59.02
2018-05-02T22:35:21.856Z,58.76
2018-05-02T22:37:50.276Z,59.13
2018-05-02T22:40:18.933Z,59.11
2018-05-02T22:42:47.380Z,59.33
2018-05-02T22:45:15.761Z,59.68
2018-05-02T22:47:44.093Z,59.63
2018-05-02T22:50:12.505Z,59.07
2018-05-02T22:52:41.632Z,59.39
2018-05-02T22:55:10.024Z,59.72
2018-05-02T22:57:38.407Z,59.57
2018-05-02T23:00:06.846Z,59.60
2018-05-02T23:02:36.022Z,59.67
2018-05-02T23:05:04.369Z,59.59
2018-05-02T23:07:32.745Z,59.50
2018-05-02T23:10:01.515Z,59.53
2018-05-02T23:12:29.853Z,59.50
2018-05-02T23:14:58.958Z,59.95
2018-05-02T23:17:28.119Z,59.71
2018-05-02T23:19:56.505Z,59.89
2018-05-02T23:22:24.970Z,60.57
2018-05-02T23:24:53.321Z,59.76
2018-05-02T23:27:21.743Z,59.80
2018-05-02T23:29:50.092Z,59.60
2018-05-02T23:32:18.438Z,59.67
2018-05-02T23:34:47.540Z,59.53
2018-05-02T23:37:15.958Z,59.49
2018-05-02T23:39:44.396Z,59.40
2018-05-02T23:42:12.779Z,59.71
2018-05-02T23:44:41.194Z,59.35
2018-05-02T23:47:09.548Z,59.39
2018-05-02T23:49:37.887Z,59.47
2018-05-02T23:52:07.057Z,59.06
2018-05-02T23:54:35.448Z,59.24
2018-05-02T23:57:04.251Z,59.35
2018-05-02T23:59:33.347Z,58.87
